Time;durP1;ratioP1;P1;durP2;ratioP2;P2;SDS_P1;SDS_P2;PMS_P1;PMS_P2;Temp;Humidity;BMP_temperature;BMP_pressure;BME280_temperature;BME280_humidity;BME280_pressure;Samples;Min_cycle;Max_cycle;Signal;HPM_P1;HPM_P2
2023/02/04 00:02:25;;;;;;;;;8.50;8.00;;;;;11.38;68.50;102816.00;6272444;22;45520;-75
2023/02/04 00:04:50;;;;;;;;;13.00;12.00;;;;;11.40;68.51;102824.63;6271614;22;45769;-75
2023/02/04 00:07:17;;;;;;;;;13.25;11.00;;;;;11.41;68.45;102821.09;6271585;22;45635;-74
2023/02/04 00:09:45;;;;;;;;;6.25;6.00;;;;;11.42;68.58;102824.59;6273377;22;46453;-73
2023/02/04 00:12:11;;;;;;;;;9.50;8.00;;;;;11.35;68.44;102816.94;6274689;22;46234;-75
2023/02/04 00:14:36;;;;;;;;;12.25;11.25;;;;;11.37;68.62;102822.16;6273639;22;45480;-76
2023/02/04 00:17:01;;;;;;;;;11.00;8.50;;;;;11.36;68.66;102823.91;6271154;22;45528;-74
2023/02/04 00:22:50;;;;;;;;;14.50;9.50;;;;;11.37;68.94;102822.16;6271860;22;46038;-74
2023/02/04 00:25:16;;;;;;;;;9.00;8.50;;;;;11.33;68.88;102818.78;6272488;22;45543;-75
2023/02/04 00:27:41;;;;;;;;;12.00;8.25;;;;;11.34;68.89;102817.00;6272414;22;45721;-75
2023/02/04 00:30:07;;;;;;;;;9.00;9.00;;;;;11.36;68.94;102820.44;6271389;22;47388;-73
2023/02/04 00:32:32;;;;;;;;;11.75;9.25;;;;;11.34;69.16;102809.97;6243897;22;46929;-75
2023/02/04 00:38:19;;;;;;;;;8.50;8.00;;;;;11.35;69.20;102813.47;6271740;22;45587;-75
2023/02/04 00:40:45;;;;;;;;;12.00;9.00;;;;;11.32;69.10;102808.34;6271232;22;45555;-75
2023/02/04 00:43:10;;;;;;;;;9.50;8.75;;;;;11.30;69.27;102804.91;6271880;22;46052;-73
2023/02/04 00:45:35;;;;;;;;;10.50;8.75;;;;;11.38;69.23;102817.75;6269880;22;45884;-75
2023/02/04 00:48:01;;;;;;;;;11.50;10.50;;;;;11.31;69.21;102799.63;6271355;22;45573;-74
2023/02/04 00:50:26;;;;;;;;;12.50;11.25;;;;;11.36;69.37;102807.31;6271841;22;45566;-71
2023/02/04 00:52:52;;;;;;;;;10.25;9.00;;;;;11.34;69.31;102809.97;6271163;22;46348;-73
2023/02/04 00:55:17;;;;;;;;;12.50;10.50;;;;;11.31;69.27;102804.88;6244272;22;45595;-75
2023/02/04 00:57:45;;;;;;;;;12.25;10.50;;;;;11.32;69.51;102813.59;6271765;22;45595;-74
2023/02/04 01:00:12;;;;;;;;;13.50;10.00;;;;;11.26;69.60;102806.81;6271813;22;45560;-72
2023/02/04 01:02:39;;;;;;;;;17.00;13.00;;;;;11.28;69.60;102809.38;6271654;22;47025;-74
2023/02/04 01:08:26;;;;;;;;;10.25;9.00;;;;;11.23;69.83;102819.19;6266000;22;45816;-71
2023/02/04 01:10:51;;;;;;;;;12.00;10.75;;;;;11.23;69.84;102821.81;6271592;22;45526;-74
2023/02/04 01:13:17;;;;;;;;;13.50;11.00;;;;;11.22;69.96;102822.75;6271988;22;45653;-71
2023/02/04 01:15:42;;;;;;;;;15.50;12.75;;;;;11.24;69.88;102827.00;6271232;22;45582;-75
2023/02/04 01:18:07;;;;;;;;;14.25;12.50;;;;;11.21;69.90;102821.03;6271034;22;45800;-74
2023/02/04 01:23:54;;;;;;;;;9.75;9.75;;;;;11.16;70.05;102812.47;6271649;22;45965;-76
2023/02/04 01:26:20;;;;;;;;;13.75;12.00;;;;;11.20;70.09;102828.03;6243643;22;45453;-73
2023/02/04 01:28:46;;;;;;;;;16.00;13.50;;;;;11.21;70.34;102828.91;6271499;22;45435;-73
2023/02/04 01:31:11;;;;;;;;;17.00;13.25;;;;;11.18;70.16;102827.22;6271671;22;46486;-74
2023/02/04 01:33:37;;;;;;;;;11.50;11.00;;;;;11.22;70.33;102830.63;6270792;22;46899;-72
2023/02/04 01:36:04;;;;;;;;;16.50;13.25;;;;;11.14;70.39;102820.41;6270653;22;45543;-74
2023/02/04 01:38:29;;;;;;;;;18.50;12.25;;;;;11.22;70.48;102834.09;6269552;22;45907;-73
2023/02/04 01:40:55;;;;;;;;;13.50;12.00;;;;;11.21;70.52;102842.03;6270954;22;46298;-72
2023/02/04 01:43:22;;;;;;;;;13.00;10.00;;;;;11.18;70.49;102839.50;6243719;22;46156;-73
2023/02/04 01:45:48;;;;;;;;;13.50;12.25;;;;;11.09;70.58;102821.47;6271755;22;45556;-74
2023/02/04 01:48:19;;;;;;;;;13.25;12.00;;;;;11.20;70.53;102829.81;6270989;22;45440;-73
2023/02/04 01:50:52;;;;;;;;;17.75;14.25;;;;;11.23;70.47;102837.53;6270986;22;47317;-74
2023/02/04 01:53:22;;;;;;;;;12.50;11.50;;;;;11.23;70.54;102834.91;6272916;22;46174;-74
2023/02/04 01:55:48;;;;;;;;;12.25;11.25;;;;;11.22;70.29;102830.63;6272377;22;45649;-74
2023/02/04 01:58:15;;;;;;;;;17.75;14.00;;;;;11.22;70.78;102836.72;6273772;22;45389;-73
2023/02/04 02:00:41;;;;;;;;;19.50;13.00;;;;;11.20;70.73;102837.69;6273794;22;46555;-71
2023/02/04 02:03:09;;;;;;;;;13.00;12.00;;;;;11.20;70.95;102830.66;6244587;22;45847;-74
2023/02/04 02:05:39;;;;;;;;;17.50;14.50;;;;;11.21;70.87;102823.66;6272300;22;45485;-73
2023/02/04 02:08:06;;;;;;;;;13.50;13.50;;;;;11.22;70.96;102831.47;6271461;22;45437;-76
2023/02/04 02:10:32;;;;;;;;;13.50;13.25;;;;;11.23;70.96;102830.53;6272100;22;47484;-72
2023/02/04 02:12:58;;;;;;;;;14.00;13.75;;;;;11.20;70.91;102820.16;6272526;22;46212;-75
2023/02/04 02:15:24;;;;;;;;;18.00;16.50;;;;;11.20;71.13;102827.19;6272306;22;45641;-75
2023/02/04 02:17:51;;;;;;;;;17.25;14.00;;;;;11.22;71.19;102822.75;6273075;22;45523;-74
2023/02/04 02:20:20;;;;;;;;;14.50;12.25;;;;;11.21;71.16;102821.88;6271866;22;46665;-76
2023/02/04 02:22:51;;;;;;;;;18.25;14.25;;;;;11.21;71.11;102828.91;6272197;22;46341;-76
2023/02/04 02:25:18;;;;;;;;;15.25;13.25;;;;;11.21;71.03;102808.75;6272762;22;45440;-76
2023/02/04 02:27:43;;;;;;;;;15.25;13.75;;;;;11.23;71.21;102820.03;6272028;22;45853;-75
2023/02/04 02:30:13;;;;;;;;;16.00;14.25;;;;;11.24;71.26;102813.88;6272621;22;46653;-75
2023/02/04 02:32:39;;;;;;;;;17.75;14.25;;;;;11.25;71.10;102818.22;6272335;22;45907;-74
2023/02/04 02:35:06;;;;;;;;;18.00;15.50;;;;;11.27;70.98;102816.41;6272577;22;45735;-76
2023/02/04 02:37:31;;;;;;;;;20.25;16.50;;;;;11.29;71.23;102809.31;6272050;22;45411;-74
2023/02/04 02:39:57;;;;;;;;;19.25;16.50;;;;;11.24;71.34;102803.38;6272566;22;45628;-73
2023/02/04 02:42:23;;;;;;;;;17.50;13.50;;;;;11.24;71.21;102813.88;6271652;22;46121;-75
2023/02/04 02:44:49;;;;;;;;;18.75;13.75;;;;;11.24;71.57;102820.91;6271966;22;45593;-76
2023/02/04 02:47:18;;;;;;;;;16.00;13.25;;;;;11.21;71.61;102824.50;6273063;22;45649;-75
2023/02/04 02:49:46;;;;;;;;;21.25;15.00;;;;;11.14;71.68;102806.41;6272662;22;46521;-75
2023/02/04 02:52:12;;;;;;;;;18.25;17.00;;;;;11.17;71.77;102815.06;6271988;22;46164;-73
2023/02/04 02:54:39;;;;;;;;;17.25;17.00;;;;;11.17;71.83;102817.69;6273381;22;45688;-73
2023/02/04 02:57:12;;;;;;;;;17.00;14.25;;;;;11.08;71.76;102806.66;6272970;22;45524;-73
2023/02/04 02:59:37;;;;;;;;;14.00;14.00;;;;;11.19;71.72;102817.59;6271765;22;47469;-75
2023/02/04 03:02:04;;;;;;;;;19.25;15.75;;;;;11.22;71.66;102817.50;6271674;22;46932;-71
2023/02/04 03:04:32;;;;;;;;;16.75;14.50;;;;;11.21;71.85;102818.41;6272318;22;45569;-74
2023/02/04 03:10:33;;;;;;;;;14.50;13.50;;;;;11.17;72.01;102827.31;6266947;22;45915;-73
2023/02/04 03:12:58;;;;;;;;;13.00;11.25;;;;;11.09;71.92;102809.22;6272292;22;45900;-71
2023/02/04 03:15:24;;;;;;;;;14.50;14.00;;;;;11.10;72.02;102815.34;6272164;22;45536;-72
2023/02/04 03:17:55;;;;;;;;;18.00;15.50;;;;;11.12;72.08;102824.84;6271954;22;45555;-73
2023/02/04 03:20:22;;;;;;;;;17.75;14.75;;;;;11.11;72.45;102819.66;6271344;22;47284;-71
2023/02/04 03:22:48;;;;;;;;;16.50;13.00;;;;;11.09;72.13;102819.72;6271192;22;46101;-73
2023/02/04 03:25:13;;;;;;;;;20.00;14.00;;;;;11.07;72.08;102813.66;6272406;22;45583;-72
2023/02/04 03:27:39;;;;;;;;;21.00;12.75;;;;;11.05;72.38;102815.50;6272389;22;45610;-74
2023/02/04 03:30:05;;;;;;;;;17.50;14.00;;;;;11.02;72.33;102812.13;6272209;22;46552;-75
2023/02/04 03:32:30;;;;;;;;;15.25;14.25;;;;;11.02;72.49;102822.63;6271992;22;46631;-73
2023/02/04 03:34:55;;;;;;;;;18.50;14.75;;;;;11.02;72.63;102826.09;6271531;22;45589;-73
2023/02/04 03:40:42;;;;;;;;;21.75;17.00;;;;;10.94;72.58;102801.94;6271770;22;45486;-73
2023/02/04 03:43:07;;;;;;;;;17.25;15.25;;;;;10.97;72.64;102814.06;6270439;22;47501;-73
2023/02/04 03:45:33;;;;;;;;;17.00;14.00;;;;;11.00;72.60;102820.06;6271825;22;45455;-74
2023/02/04 03:47:58;;;;;;;;;13.50;13.00;;;;;11.03;72.56;102829.56;6273134;22;45617;-73
2023/02/04 03:50:23;;;;;;;;;16.75;14.50;;;;;11.04;72.62;102826.91;6272530;22;46324;-72
2023/02/04 03:52:50;;;;;;;;;17.25;16.00;;;;;11.06;72.70;102826.84;6244559;22;46974;-73
2023/02/04 03:55:16;;;;;;;;;18.25;14.00;;;;;11.06;72.60;102829.47;6271638;22;45691;-75
2023/02/04 03:57:41;;;;;;;;;15.00;13.25;;;;;11.00;72.59;102820.06;6271274;22;45558;-73
2023/02/04 04:00:07;;;;;;;;;17.50;16.00;;;;;11.05;72.96;102836.50;6271409;22;47328;-72
2023/02/04 04:02:32;;;;;;;;;13.75;13.00;;;;;11.01;72.89;102828.81;6271069;22;46007;-74
2023/02/04 04:04:58;;;;;;;;;16.75;13.75;;;;;10.99;72.76;102822.75;6271715;22;45545;-73
2023/02/04 04:10:44;;;;;;;;;18.50;14.00;;;;;10.98;72.92;102836.75;6269034;22;45990;-73
2023/02/04 04:13:10;;;;;;;;;18.00;14.25;;;;;10.95;72.86;102832.50;6271542;22;46083;-74
2023/02/04 04:15:35;;;;;;;;;18.00;14.00;;;;;10.98;73.06;102832.38;6270625;22;45547;-74
2023/02/04 04:18:03;;;;;;;;;16.25;14.00;;;;;10.96;72.82;102844.69;6271556;22;45752;-74
2023/02/04 04:20:28;;;;;;;;;14.00;13.00;;;;;10.96;72.98;102849.09;6271349;22;46717;-75
2023/02/04 04:26:16;;;;;;;;;18.75;15.75;;;;;10.93;73.30;102840.41;6272109;22;45541;-73
2023/02/04 04:28:41;;;;;;;;;21.00;16.25;;;;;10.92;73.07;102836.09;6271689;22;45618;-74
2023/02/04 04:31:08;;;;;;;;;16.75;15.00;;;;;10.92;72.93;102843.94;6272110;22;45491;-73
2023/02/04 04:33:33;;;;;;;;;21.00;14.50;;;;;10.93;73.04;102843.03;6271257;22;46264;-74
2023/02/04 04:35:59;;;;;;;;;19.25;15.50;;;;;10.94;73.01;102839.50;6272129;22;45527;-71
2023/02/04 04:41:45;;;;;;;;;13.75;11.75;;;;;10.98;73.02;102850.75;6273104;22;46002;-74
2023/02/04 04:44:11;;;;;;;;;16.50;12.75;;;;;10.97;73.07;102848.16;6245121;22;47524;-72
2023/02/04 04:46:36;;;;;;;;;11.25;10.75;;;;;10.97;72.91;102850.78;6274690;22;45582;-73
2023/02/04 04:49:01;;;;;;;;;12.00;12.00;;;;;10.94;73.09;102852.63;6273379;22;45490;-74
2023/02/04 04:51:30;;;;;;;;;14.00;13.75;;;;;10.96;72.91;102854.34;6271341;22;46719;-73
2023/02/04 04:53:56;;;;;;;;;13.00;12.00;;;;;10.94;72.81;102852.63;6271101;22;46207;-73
2023/02/04 04:56:21;;;;;;;;;15.25;12.00;;;;;10.92;72.81;102841.31;6272488;22;45397;-75
2023/02/04 04:58:46;;;;;;;;;13.00;12.00;;;;;10.94;72.95;102855.25;6271450;22;45837;-75
2023/02/04 05:01:12;;;;;;;;;17.50;13.25;;;;;10.92;72.76;102854.44;6271294;22;47446;-73
2023/02/04 05:03:37;;;;;;;;;17.00;13.50;;;;;10.91;72.81;102847.47;6243728;22;47208;-73
2023/02/04 05:06:02;;;;;;;;;12.25;11.00;;;;;10.99;72.56;102862.09;6271702;22;45475;-75
2023/02/04 05:11:49;;;;;;;;;10.25;9.00;;;;;11.01;72.41;102855.88;6265692;22;45691;-74
2023/02/04 05:14:14;;;;;;;;;16.75;11.75;;;;;11.00;72.57;102855.94;6271759;22;45880;-74
2023/02/04 05:16:40;;;;;;;;;12.00;12.00;;;;;10.97;72.51;102856.88;6271581;22;45676;-73
2023/02/04 05:19:05;;;;;;;;;10.50;8.50;;;;;10.96;72.58;102859.59;6271008;22;45448;-73
2023/02/04 05:21:30;;;;;;;;;16.75;11.75;;;;;10.94;72.59;102857.88;6243532;22;48109;-73
2023/02/04 05:27:17;;;;;;;;;14.00;12.00;;;;;10.93;72.67;102856.16;6270843;22;45549;-75
2023/02/04 05:29:43;;;;;;;;;12.25;11.50;;;;;10.91;72.49;102859.72;6272252;22;45822;-71
2023/02/04 05:32:08;;;;;;;;;10.75;8.25;;;;;10.88;72.44;102863.34;6271396;22;45400;-72
2023/02/04 05:34:33;;;;;;;;;13.75;11.75;;;;;10.87;72.50;102869.50;6244384;22;46436;-71
2023/02/04 05:36:59;;;;;;;;;11.00;9.50;;;;;10.86;72.47;102865.16;6271609;22;45564;-72
2023/02/04 05:39:24;;;;;;;;;11.75;9.25;;;;;10.86;72.38;102867.78;6271092;22;45531;-72
2023/02/04 05:41:50;;;;;;;;;13.00;12.75;;;;;10.88;72.29;102871.22;6271625;22;46229;-75
2023/02/04 05:44:15;;;;;;;;;13.75;12.00;;;;;10.91;72.42;102867.59;6272575;22;46927;-74
2023/02/04 05:46:40;;;;;;;;;20.50;15.00;;;;;10.91;72.27;102864.97;6245775;22;45610;-73
2023/02/04 05:49:07;;;;;;;;;17.00;12.75;;;;;10.94;72.34;102867.50;6273046;22;45643;-73
2023/02/04 05:51:32;;;;;;;;;13.00;10.75;;;;;10.96;72.21;102877.94;6271324;22;45515;-69
2023/02/04 05:57:19;;;;;;;;;13.25;11.75;;;;;10.93;72.16;102877.13;6270619;22;45882;-73
2023/02/04 05:59:44;;;;;;;;;14.00;12.50;;;;;10.97;72.01;102877.00;6270177;22;45560;-72
2023/02/04 06:02:10;;;;;;;;;12.00;8.75;;;;;10.88;72.12;102865.09;6242641;22;46477;-73
2023/02/04 06:04:35;;;;;;;;;17.00;12.75;;;;;10.98;72.05;102879.59;6271303;22;45571;-71
2023/02/04 06:07:02;;;;;;;;;12.25;10.00;;;;;10.99;72.07;102877.81;6269898;22;45427;-71
2023/02/04 06:12:48;;;;;;;;;8.75;8.75;;;;;10.98;71.91;102887.47;6265490;22;45987;-72
2023/02/04 06:15:14;;;;;;;;;13.50;11.25;;;;;10.93;71.88;102886.78;6270539;22;45897;-72
2023/02/04 06:17:39;;;;;;;;;10.00;10.00;;;;;10.95;71.91;102890.22;6270282;22;45543;-72
2023/02/04 06:20:06;;;;;;;;;14.75;12.25;;;;;10.97;71.90;102885.75;6271466;22;45436;-72
2023/02/04 06:22:31;;;;;;;;;16.00;12.50;;;;;10.97;71.82;102884.88;6270343;22;46915;-72
2023/02/04 06:24:57;;;;;;;;;13.75;12.50;;;;;10.94;71.96;102891.09;6270814;22;45835;-72
2023/02/04 06:27:22;;;;;;;;;13.25;11.00;;;;;10.94;72.03;102885.88;6270215;22;45511;-72
2023/02/04 06:29:51;;;;;;;;;18.00;11.25;;;;;10.97;71.87;102892.75;6270540;22;45442;-71
2023/02/04 06:32:18;;;;;;;;;13.75;11.50;;;;;10.96;71.85;102891.06;6270079;22;47392;-70
2023/02/04 06:34:44;;;;;;;;;13.75;11.50;;;;;10.94;71.85;102881.47;6270552;22;48116;-73
2023/02/04 06:37:11;;;;;;;;;10.50;8.75;;;;;10.98;71.75;102891.84;6270150;22;45554;-72
2023/02/04 06:42:58;;;;;;;;;16.75;10.50;;;;;10.87;72.01;102879.97;6273127;22;45525;-71
2023/02/04 06:45:23;;;;;;;;;16.00;12.25;;;;;10.91;71.86;102875.47;6272948;22;45519;-72
2023/02/04 06:47:49;;;;;;;;;14.75;13.00;;;;;10.88;72.06;102879.06;6271941;22;45370;-71
2023/02/04 06:50:17;;;;;;;;;13.50;11.75;;;;;10.89;72.25;102880.78;6272453;22;45567;-72
2023/02/04 06:52:47;;;;;;;;;14.50;12.50;;;;;10.89;72.24;102883.41;6271238;22;46556;-71
2023/02/04 06:58:34;;;;;;;;;14.50;12.25;;;;;10.82;72.32;102879.28;6272417;22;45653;-73
2023/02/04 07:00:59;;;;;;;;;14.75;12.50;;;;;10.77;72.44;102875.13;6273010;22;45419;-73
2023/02/04 07:03:24;;;;;;;;;16.25;13.50;;;;;10.83;72.42;102878.38;6271620;22;46449;-73
2023/02/04 07:05:51;;;;;;;;;14.00;12.00;;;;;10.83;72.63;102885.38;6272389;22;45838;-74
2023/02/04 07:08:17;;;;;;;;;8.75;7.25;;;;;10.77;72.48;102880.34;6271866;22;45716;-73
2023/02/04 07:10:42;;;;;;;;;14.50;8.75;;;;;10.80;72.56;102882.84;6271361;22;45489;-73
2023/02/04 07:13:07;;;;;;;;;15.50;12.75;;;;;10.79;72.73;102886.41;6271829;22;46413;-74
2023/02/04 07:15:33;;;;;;;;;12.75;11.75;;;;;10.71;72.55;102860.47;6243758;22;46877;-73
2023/02/04 07:17:59;;;;;;;;;15.25;12.00;;;;;10.83;72.53;102891.50;6272156;22;45813;-72
2023/02/04 07:20:24;;;;;;;;;12.75;11.25;;;;;10.88;72.62;102896.56;6271979;22;45725;-73
2023/02/04 07:22:49;;;;;;;;;9.75;9.00;;;;;10.90;72.66;102902.63;6271142;22;46239;-75
2023/02/04 07:28:36;;;;;;;;;13.50;10.00;;;;;10.95;72.67;102913.81;6271895;22;45574;-74
2023/02/04 07:31:01;;;;;;;;;14.50;12.75;;;;;10.92;72.54;102913.91;6271989;22;45547;-74
2023/02/04 07:33:27;;;;;;;;;14.50;12.75;;;;;10.92;72.33;102911.28;6272647;22;45780;-73
2023/02/04 07:35:52;;;;;;;;;14.00;12.50;;;;;10.97;72.43;102924.22;6272964;22;45920;-75
2023/02/04 07:38:17;;;;;;;;;15.25;13.00;;;;;10.97;72.36;102918.97;6272063;22;45485;-72
2023/02/04 07:44:04;;;;;;;;;12.75;12.00;;;;;11.03;72.38;102922.25;6271826;22;46107;-74
2023/02/04 07:46:30;;;;;;;;;13.50;12.50;;;;;11.04;72.29;102934.47;6270980;22;45584;-73
2023/02/04 07:48:56;;;;;;;;;19.00;13.75;;;;;11.03;72.40;102921.38;6272336;22;45530;-73
2023/02/04 07:51:21;;;;;;;;;18.00;13.75;;;;;11.02;72.42;102933.63;6272534;22;45554;-73
2023/02/04 07:53:46;;;;;;;;;19.25;13.00;;;;;10.92;72.50;102917.38;6271277;22;45591;-73
2023/02/04 07:56:12;;;;;;;;;18.50;15.00;;;;;10.96;72.14;102925.97;6244057;22;48239;-73
2023/02/04 07:58:37;;;;;;;;;15.00;13.00;;;;;10.99;72.39;102931.13;6272160;22;45645;-73
2023/02/04 08:01:02;;;;;;;;;14.25;12.75;;;;;10.97;72.54;102932.09;6272284;22;45448;-73
2023/02/04 08:03:29;;;;;;;;;16.00;14.00;;;;;10.98;72.45;102931.19;6271171;22;46443;-73
2023/02/04 08:05:55;;;;;;;;;11.75;8.50;;;;;10.98;72.50;102944.31;6244153;22;47532;-74
2023/02/04 08:08:20;;;;;;;;;18.75;14.75;;;;;10.95;72.48;102940.03;6271647;22;45690;-74
2023/02/04 08:14:08;;;;;;;;;19.00;13.00;;;;;11.00;72.53;102945.97;6265230;22;46069;-73
2023/02/04 08:16:33;;;;;;;;;14.50;13.50;;;;;11.01;72.52;102945.06;6271630;22;46084;-72
2023/02/04 08:18:59;;;;;;;;;19.50;15.00;;;;;11.03;72.45;102943.22;6244275;22;45479;-74
2023/02/04 08:21:24;;;;;;;;;14.00;13.75;;;;;11.01;72.44;102945.06;6243959;22;45994;-73
2023/02/04 08:23:50;;;;;;;;;15.75;13.00;;;;;11.04;72.51;102941.47;6271769;22;46579;-73
2023/02/04 08:29:38;;;;;;;;;18.25;15.00;;;;;11.06;72.90;102947.53;6269338;22;45540;-74
2023/02/04 08:32:03;;;;;;;;;15.50;14.00;;;;;11.06;72.28;102950.16;6271226;22;45373;-71
2023/02/04 08:34:30;;;;;;;;;15.75;13.75;;;;;11.01;72.42;102938.97;6243885;22;46422;-73
2023/02/04 08:36:55;;;;;;;;;17.00;13.50;;;;;11.05;72.21;102965.03;6270925;22;45999;-74
2023/02/04 08:39:21;;;;;;;;;21.50;14.00;;;;;11.03;72.47;102961.59;6272042;22;45503;-73
2023/02/04 08:41:48;;;;;;;;;13.75;13.25;;;;;10.97;72.57;102953.94;6272103;22;45579;-74
2023/02/04 08:44:13;;;;;;;;;17.25;13.75;;;;;11.04;72.46;102968.56;6271268;22;47671;-74
2023/02/04 08:46:38;;;;;;;;;14.75;12.25;;;;;10.99;72.37;102946.88;6244491;22;45686;-74
2023/02/04 08:49:04;;;;;;;;;18.50;15.50;;;;;11.09;72.56;102960.53;6272266;22;45521;-73
2023/02/04 08:51:29;;;;;;;;;17.00;14.50;;;;;11.12;72.54;102958.63;6272065;22;45537;-74
2023/02/04 08:53:54;;;;;;;;;18.00;13.75;;;;;11.12;72.76;102958.63;6270214;22;46304;-74
2023/02/04 08:59:41;;;;;;;;;15.00;13.25;;;;;11.12;73.08;102966.50;6271302;22;45535;-74
2023/02/04 09:02:08;;;;;;;;;14.50;12.50;;;;;11.11;72.87;102963.97;6270764;22;45542;-73
2023/02/04 09:04:34;;;;;;;;;11.50;11.25;;;;;11.01;72.99;102949.47;6271456;22;47370;-73
2023/02/04 09:06:59;;;;;;;;;15.75;14.00;;;;;11.04;73.15;102952.81;6272434;22;45729;-72
2023/02/04 09:09:24;;;;;;;;;14.50;13.00;;;;;11.14;73.19;102962.06;6271111;22;45621;-74
2023/02/04 09:15:11;;;;;;;;;14.25;12.25;;;;;11.10;73.68;102962.25;6265959;22;45542;-73
2023/02/04 09:17:37;;;;;;;;;18.00;14.75;;;;;11.13;73.49;102967.34;6271090;22;46789;-71
2023/02/04 09:20:06;;;;;;;;;14.75;10.25;;;;;11.17;73.46;102980.34;6272541;22;45771;-72
2023/02/04 09:22:32;;;;;;;;;20.25;13.00;;;;;11.11;73.54;102970.06;6271629;22;45879;-73
2023/02/04 09:24:57;;;;;;;;;15.00;14.00;;;;;11.17;73.58;102982.97;6271887;22;45560;-75
2023/02/04 09:27:22;;;;;;;;;14.00;13.00;;;;;11.14;73.82;102982.19;6270884;22;45559;-73
2023/02/04 09:29:48;;;;;;;;;11.00;10.25;;;;;11.13;73.99;102985.72;6271085;22;45730;-73
2023/02/04 09:32:13;;;;;;;;;14.50;13.50;;;;;11.12;74.04;102982.25;6271985;22;45527;-73
2023/02/04 09:34:38;;;;;;;;;12.00;9.75;;;;;11.09;74.19;102976.25;6243578;22;46355;-73
2023/02/04 09:37:04;;;;;;;;;13.00;9.50;;;;;11.11;74.42;102982.31;6270339;22;47026;-72
2023/02/04 09:39:29;;;;;;;;;14.00;13.00;;;;;11.07;74.57;102992.03;6270751;22;45583;-73
2023/02/04 09:45:21;;;;;;;;;16.25;12.75;;;;;11.06;74.89;102985.13;6271167;22;45974;-73
2023/02/04 09:47:47;;;;;;;;;14.50;12.75;;;;;11.09;74.80;102981.50;6243249;22;46494;-74
2023/02/04 09:50:15;;;;;;;;;12.00;10.25;;;;;11.10;75.16;102993.72;6271463;22;45507;-72
2023/02/04 09:52:41;;;;;;;;;10.25;10.25;;;;;11.06;75.38;102990.34;6244616;22;45580;-73
2023/02/04 09:55:14;;;;;;;;;8.50;7.75;;;;;11.04;75.30;102986.91;6270871;22;45477;-73
2023/02/04 10:01:09;;;;;;;;;11.50;8.75;;;;;11.05;75.46;102995.66;6271692;22;45701;-74
2023/02/04 10:03:36;;;;;;;;;10.25;8.50;;;;;11.04;75.51;102994.78;6272047;22;45570;-74
2023/02/04 10:06:01;;;;;;;;;10.00;9.00;;;;;11.06;75.34;102997.38;6271616;22;46400;-71
2023/02/04 10:08:30;;;;;;;;;11.00;9.25;;;;;11.09;75.43;102995.47;6270709;22;47105;-73
2023/02/04 10:10:55;;;;;;;;;1.00;0.50;;;;;11.10;75.71;103002.44;6270903;22;45696;-72
2023/02/04 10:13:30;;;;;;;;;11.00;8.00;;;;;11.13;75.61;103006.72;6272304;22;45511;-72
2023/02/04 10:15:56;;;;;;;;;7.75;6.00;;;;;11.12;75.53;103000.59;6272044;22;45552;-72
2023/02/04 10:18:30;;;;;;;;;7.00;6.00;;;;;11.10;75.88;103010.31;6272776;22;45539;-74
2023/02/04 10:21:08;;;;;;;;;5.00;5.00;;;;;11.05;75.87;103009.63;6272886;22;45625;-72
2023/02/04 10:23:33;;;;;;;;;6.25;5.00;;;;;11.01;76.21;103010.66;6271607;22;45539;-73
2023/02/04 10:25:58;;;;;;;;;11.00;8.50;;;;;11.01;76.28;103009.78;6272032;22;45542;-74
2023/02/04 10:28:36;;;;;;;;;7.25;7.00;;;;;11.00;76.38;103018.56;6272449;22;46037;-73
2023/02/04 10:31:02;;;;;;;;;6.75;6.00;;;;;10.98;76.40;103015.13;6271531;22;45581;-72
2023/02/04 10:33:27;;;;;;;;;9.00;8.00;;;;;10.96;76.37;103030.06;6271866;22;45710;-72
2023/02/04 10:35:55;;;;;;;;;7.00;6.50;;;;;10.96;76.19;103017.78;6271420;22;47184;-73
2023/02/04 10:38:21;;;;;;;;;7.25;6.00;;;;;10.96;76.25;103022.19;6244383;22;46381;-74
2023/02/04 10:40:47;;;;;;;;;8.00;8.00;;;;;10.97;76.15;103023.88;6272245;22;45519;-74
2023/02/04 10:46:34;;;;;;;;;9.75;7.00;;;;;10.96;76.34;103030.91;6272180;22;45716;-73
2023/02/04 10:49:02;;;;;;;;;8.00;7.00;;;;;11.00;76.57;103035.16;6272153;22;46827;-74
2023/02/04 10:51:27;;;;;;;;;9.00;8.25;;;;;11.02;76.51;103035.94;6272580;22;45715;-74
2023/02/04 10:56:37;;;;;;;;;9.75;7.75;;;;;11.02;76.31;103033.31;6272290;22;45896;-74
2023/02/04 10:59:03;;;;;;;;;10.25;10.25;;;;;11.02;76.41;103027.22;6272407;22;46045;-73
2023/02/04 11:01:30;;;;;;;;;10.50;9.00;;;;;11.02;76.68;103022.81;6271952;22;45767;-72
2023/02/04 11:03:55;;;;;;;;;12.00;9.00;;;;;11.02;76.74;103024.59;6272764;22;45444;-73
2023/02/04 11:06:23;;;;;;;;;9.75;9.50;;;;;10.99;76.77;103016.84;6271670;22;46099;-74
2023/02/04 11:08:52;;;;;;;;;11.25;9.75;;;;;11.05;76.85;103027.13;6272567;22;45960;-73
2023/02/04 11:18:20;;;;;;;;;12.25;9.75;;;;;11.19;76.43;103014.38;6241470;22;45610;-74
2023/02/04 11:20:48;;;;;;;;;12.25;10.75;;;;;11.22;76.30;103015.16;6241444;22;46044;-74
2023/02/04 11:23:16;;;;;;;;;13.25;12.25;;;;;11.28;76.28;103019.31;6240960;22;45440;-74
2023/02/04 11:25:41;;;;;;;;;12.25;11.75;;;;;11.31;76.15;103017.44;6213066;22;45963;-74
2023/02/04 11:31:43;;;;;;;;;7.00;7.00;;;;;11.38;75.82;103020.72;6241078;22;46045;-74
2023/02/04 11:34:14;;;;;;;;;9.50;9.50;;;;;11.42;76.35;103029.31;6240920;22;45635;-73
2023/02/04 11:37:14;;;;;;;;;10.25;9.00;;;;;11.42;76.17;103016.19;6240321;22;45543;-73
2023/02/04 11:39:50;;;;;;;;;9.25;8.25;;;;;11.46;75.83;103013.41;6117747;23;46381;-72
2023/02/04 11:42:30;;;;;;;;;10.25;10.25;;;;;11.52;75.75;103007.94;6118233;23;46089;-73
2023/02/04 11:45:01;;;;;;;;;10.75;10.75;;;;;11.53;75.76;103014.03;6117554;23;45681;-73
2023/02/04 11:47:34;;;;;;;;;15.25;13.75;;;;;11.44;75.60;102998.63;6117721;23;45845;-73
2023/02/04 11:50:03;;;;;;;;;8.75;8.75;;;;;11.49;75.63;103018.56;6117583;23;47126;-74
2023/02/04 11:52:28;;;;;;;;;14.25;11.50;;;;;11.47;75.79;103007.25;6117295;23;46457;-75
2023/02/04 11:54:57;;;;;;;;;12.00;10.25;;;;;11.39;75.62;102998.78;6117534;23;45796;-73
2023/02/04 11:57:22;;;;;;;;;13.25;11.75;;;;;11.48;75.62;103008.09;6117860;23;45698;-74
2023/02/04 11:59:48;;;;;;;;;14.00;12.75;;;;;11.51;75.88;103016.72;6118207;23;46357;-73
2023/02/04 12:02:18;;;;;;;;;15.00;14.25;;;;;11.51;75.78;103008.84;6117025;23;46238;-73
2023/02/04 12:05:07;;;;;;;;;13.50;11.00;;;;;11.48;75.79;102993.22;6118721;23;45713;-72
2023/02/04 12:07:33;;;;;;;;;14.00;13.00;;;;;11.58;75.57;103009.47;6117398;23;45774;-73
2023/02/04 12:10:29;;;;;;;;;14.75;14.25;;;;;11.60;75.84;103010.28;6117014;23;47430;-74
2023/02/04 12:12:58;;;;;;;;;14.75;12.50;;;;;11.57;75.62;103000.75;6116930;23;46409;-72
2023/02/04 12:15:31;;;;;;;;;18.00;14.75;;;;;11.69;75.90;103016.03;6150110;22;45757;-73
2023/02/04 12:18:02;;;;;;;;;18.00;15.25;;;;;11.67;75.68;103015.22;6262005;22;45616;-73
2023/02/04 12:20:28;;;;;;;;;14.50;14.00;;;;;11.69;75.41;103017.81;6271914;22;45547;-73
2023/02/04 12:22:53;;;;;;;;;18.00;14.50;;;;;11.69;75.41;103017.81;6271091;22;45698;-74
2023/02/04 12:25:18;;;;;;;;;15.00;13.00;;;;;11.65;75.78;103016.22;6271417;22;45857;-74
2023/02/04 12:27:44;;;;;;;;;13.75;13.00;;;;;11.64;75.69;103012.72;6270785;22;45474;-74
2023/02/04 12:30:11;;;;;;;;;19.00;17.00;;;;;11.61;75.48;103012.84;6269315;22;48283;-74
2023/02/04 12:32:36;;;;;;;;;15.50;15.00;;;;;11.61;75.70;103004.09;6271082;22;46283;-74
2023/02/04 12:35:02;;;;;;;;;19.75;15.00;;;;;11.58;75.68;103018.22;6271516;22;45532;-72
2023/02/04 12:37:27;;;;;;;;;24.50;19.25;;;;;11.58;75.76;102999.84;6270256;22;45671;-72
2023/02/04 12:39:53;;;;;;;;;15.00;12.00;;;;;11.57;75.43;103003.38;6270812;22;46273;-75
2023/02/04 12:42:18;;;;;;;;;14.50;11.00;;;;;11.60;75.02;103015.53;6271747;22;45546;-73
2023/02/04 12:48:05;;;;;;;;;12.25;10.50;;;;;11.50;74.38;103003.66;6271570;22;45568;-74